sensor_id;sensor_type;location;lat;lon;timestamp;P1;durP1;ratioP1;P2;durP2;ratioP2
5483;SDS011;2764;48.794;8.326;2023-06-10T00:00:48;8.63;;;7.90;;
5483;SDS011;2764;48.794;8.326;2023-06-10T00:01:52;8.80;;;8.00;;
5483;SDS011;2764;48.794;8.326;2023-06-10T00:02:56;9.07;;;8.20;;
5483;SDS011;2764;48.794;8.326;2023-06-10T00:03:58;8.83;;;8.03;;
5483;SDS011;2764;48.794;8.326;2023-06-10T00:05:01;8.50;;;7.73;;
5483;SDS011;2764;48.794;8.326;2023-06-10T00:06:03;8.37;;;7.67;;
5483;SDS011;2764;48.794;8.326;2023-06-10T00:07:05;9.73;;;7.73;;
5483;SDS011;2764;48.794;8.326;2023-06-10T00:08:10;8.90;;;8.07;;
5483;SDS011;2764;48.794;8.326;2023-06-10T00:09:12;7.50;;;6.90;;
5483;SDS011;2764;48.794;8.326;2023-06-10T00:10:15;8.07;;;7.47;;
5483;SDS011;2764;48.794;8.326;2023-06-10T00:11:17;9.33;;;7.90;;
5483;SDS011;2764;48.794;8.326;2023-06-10T00:12:19;8.13;;;7.53;;
5483;SDS011;2764;48.794;8.326;2023-06-10T00:13:21;8.10;;;7.40;;
5483;SDS011;2764;48.794;8.326;2023-06-10T00:14:23;8.50;;;7.70;;
5483;SDS011;2764;48.794;8.326;2023-06-10T00:15:25;9.60;;;8.10;;
5483;SDS011;2764;48.794;8.326;2023-06-10T00:16:26;9.97;;;7.73;;
5483;SDS011;2764;48.794;8.326;2023-06-10T00:17:28;8.83;;;8.03;;
5483;SDS011;2764;48.794;8.326;2023-06-10T00:18:30;7.93;;;7.33;;
5483;SDS011;2764;48.794;8.326;2023-06-10T00:19:32;8.20;;;7.60;;
5483;SDS011;2764;48.794;8.326;2023-06-10T00:20:34;9.73;;;8.83;;
5483;SDS011;2764;48.794;8.326;2023-06-10T00:21:37;7.43;;;6.93;;
5483;SDS011;2764;48.794;8.326;2023-06-10T00:22:41;8.20;;;7.57;;
5483;SDS011;2764;48.794;8.326;2023-06-10T00:23:47;8.90;;;8.10;;
5483;SDS011;2764;48.794;8.326;2023-06-10T00:24:49;8.00;;;7.30;;
5483;SDS011;2764;48.794;8.326;2023-06-10T00:25:50;8.13;;;7.47;;
5483;SDS011;2764;48.794;8.326;2023-06-10T00:26:52;8.10;;;7.50;;
5483;SDS011;2764;48.794;8.326;2023-06-10T00:27:54;7.50;;;6.90;;
5483;SDS011;2764;48.794;8.326;2023-06-10T00:28:56;8.63;;;7.90;;
5483;SDS011;2764;48.794;8.326;2023-06-10T00:29:57;10.13;;;8.50;;
5483;SDS011;2764;48.794;8.326;2023-06-10T00:30:59;8.80;;;8.17;;
5483;SDS011;2764;48.794;8.326;2023-06-10T00:32:01;8.17;;;7.50;;
5483;SDS011;2764;48.794;8.326;2023-06-10T00:33:03;9.90;;;8.90;;
5483;SDS011;2764;48.794;8.326;2023-06-10T00:34:06;9.60;;;8.80;;
5483;SDS011;2764;48.794;8.326;2023-06-10T00:35:08;9.20;;;8.33;;
5483;SDS011;2764;48.794;8.326;2023-06-10T00:36:10;8.70;;;7.97;;
5483;SDS011;2764;48.794;8.326;2023-06-10T00:37:12;10.40;;;8.90;;
5483;SDS011;2764;48.794;8.326;2023-06-10T00:38:14;9.07;;;8.27;;
5483;SDS011;2764;48.794;8.326;2023-06-10T00:39:16;10.80;;;9.03;;
5483;SDS011;2764;48.794;8.326;2023-06-10T00:40:18;8.80;;;8.00;;
5483;SDS011;2764;48.794;8.326;2023-06-10T00:41:19;8.47;;;7.77;;
5483;SDS011;2764;48.794;8.326;2023-06-10T00:42:21;13.07;;;9.20;;
5483;SDS011;2764;48.794;8.326;2023-06-10T00:43:25;9.97;;;9.00;;
5483;SDS011;2764;48.794;8.326;2023-06-10T00:44:26;9.83;;;9.03;;
5483;SDS011;2764;48.794;8.326;2023-06-10T00:45:28;10.37;;;9.10;;
5483;SDS011;2764;48.794;8.326;2023-06-10T00:46:30;14.03;;;9.40;;
5483;SDS011;2764;48.794;8.326;2023-06-10T00:47:33;12.73;;;8.67;;
5483;SDS011;2764;48.794;8.326;2023-06-10T00:48:37;9.73;;;8.73;;
5483;SDS011;2764;48.794;8.326;2023-06-10T00:49:38;8.67;;;7.80;;
5483;SDS011;2764;48.794;8.326;2023-06-10T00:50:40;11.50;;;8.97;;
5483;SDS011;2764;48.794;8.326;2023-06-10T00:51:42;10.20;;;9.00;;
5483;SDS011;2764;48.794;8.326;2023-06-10T00:52:44;9.60;;;8.80;;
5483;SDS011;2764;48.794;8.326;2023-06-10T00:53:47;10.60;;;9.10;;
5483;SDS011;2764;48.794;8.326;2023-06-10T00:54:49;9.57;;;8.73;;
5483;SDS011;2764;48.794;8.326;2023-06-10T00:55:51;10.37;;;8.33;;
5483;SDS011;2764;48.794;8.326;2023-06-10T00:56:53;12.03;;;9.03;;
5483;SDS011;2764;48.794;8.326;2023-06-10T00:57:54;10.27;;;8.97;;
5483;SDS011;2764;48.794;8.326;2023-06-10T00:58:56;9.70;;;8.70;;
5483;SDS011;2764;48.794;8.326;2023-06-10T00:59:58;13.40;;;9.43;;
5483;SDS011;2764;48.794;8.326;2023-06-10T01:01:00;9.93;;;9.03;;
5483;SDS011;2764;48.794;8.326;2023-06-10T01:02:03;10.87;;;9.60;;
5483;SDS011;2764;48.794;8.326;2023-06-10T01:03:04;10.40;;;8.50;;
5483;SDS011;2764;48.794;8.326;2023-06-10T01:04:10;12.30;;;9.47;;
5483;SDS011;2764;48.794;8.326;2023-06-10T01:05:13;10.20;;;9.20;;
5483;SDS011;2764;48.794;8.326;2023-06-10T01:06:24;12.83;;;8.17;;
5483;SDS011;2764;48.794;8.326;2023-06-10T01:07:33;9.07;;;8.00;;
5483;SDS011;2764;48.794;8.326;2023-06-10T01:08:44;8.53;;;7.90;;
5483;SDS011;2764;48.794;8.326;2023-06-10T01:10:53;8.33;;;7.60;;
5483;SDS011;2764;48.794;8.326;2023-06-10T01:13:27;9.63;;;8.50;;
5483;SDS011;2764;48.794;8.326;2023-06-10T01:14:30;10.17;;;8.57;;
5483;SDS011;2764;48.794;8.326;2023-06-10T01:15:33;10.00;;;8.40;;
5483;SDS011;2764;48.794;8.326;2023-06-10T01:16:35;8.73;;;7.93;;
5483;SDS011;2764;48.794;8.326;2023-06-10T01:18:59;9.00;;;8.10;;
5483;SDS011;2764;48.794;8.326;2023-06-10T01:20:01;14.67;;;7.90;;
5483;SDS011;2764;48.794;8.326;2023-06-10T01:21:22;8.70;;;7.77;;
5483;SDS011;2764;48.794;8.326;2023-06-10T01:22:28;8.10;;;7.40;;
5483;SDS011;2764;48.794;8.326;2023-06-10T01:23:30;8.90;;;8.10;;
5483;SDS011;2764;48.794;8.326;2023-06-10T01:24:31;9.10;;;8.10;;
5483;SDS011;2764;48.794;8.326;2023-06-10T01:25:39;9.77;;;8.90;;
5483;SDS011;2764;48.794;8.326;2023-06-10T01:26:41;8.50;;;7.90;;
5483;SDS011;2764;48.794;8.326;2023-06-10T01:27:44;8.87;;;8.07;;
5483;SDS011;2764;48.794;8.326;2023-06-10T01:28:49;8.13;;;7.60;;
5483;SDS011;2764;48.794;8.326;2023-06-10T01:29:58;9.07;;;8.20;;
5483;SDS011;2764;48.794;8.326;2023-06-10T01:32:11;9.47;;;8.77;;
5483;SDS011;2764;48.794;8.326;2023-06-10T01:33:22;9.10;;;8.33;;
5483;SDS011;2764;48.794;8.326;2023-06-10T01:34:25;11.43;;;9.30;;
5483;SDS011;2764;48.794;8.326;2023-06-10T01:35:28;11.77;;;8.93;;
5483;SDS011;2764;48.794;8.326;2023-06-10T01:36:32;9.67;;;8.83;;
5483;SDS011;2764;48.794;8.326;2023-06-10T01:37:35;9.03;;;8.23;;
5483;SDS011;2764;48.794;8.326;2023-06-10T01:38:42;8.83;;;8.00;;
5483;SDS011;2764;48.794;8.326;2023-06-10T01:39:45;11.70;;;9.67;;
5483;SDS011;2764;48.794;8.326;2023-06-10T01:40:48;10.70;;;8.70;;
5483;SDS011;2764;48.794;8.326;2023-06-10T01:41:50;10.30;;;9.30;;
5483;SDS011;2764;48.794;8.326;2023-06-10T01:42:53;10.63;;;9.57;;
5483;SDS011;2764;48.794;8.326;2023-06-10T01:43:55;11.70;;;9.53;;
5483;SDS011;2764;48.794;8.326;2023-06-10T01:44:56;13.70;;;9.40;;
5483;SDS011;2764;48.794;8.326;2023-06-10T01:45:58;11.37;;;9.50;;
5483;SDS011;2764;48.794;8.326;2023-06-10T01:47:00;8.60;;;7.90;;
5483;SDS011;2764;48.794;8.326;2023-06-10T01:48:02;9.53;;;8.53;;
5483;SDS011;2764;48.794;8.326;2023-06-10T01:49:03;12.13;;;9.30;;
5483;SDS011;2764;48.794;8.326;2023-06-10T01:50:05;10.07;;;9.07;;
5483;SDS011;2764;48.794;8.326;2023-06-10T01:51:07;9.50;;;8.70;;
5483;SDS011;2764;48.794;8.326;2023-06-10T01:52:08;10.33;;;9.23;;
5483;SDS011;2764;48.794;8.326;2023-06-10T01:53:10;10.00;;;9.07;;
5483;SDS011;2764;48.794;8.326;2023-06-10T01:54:12;12.53;;;8.67;;
5483;SDS011;2764;48.794;8.326;2023-06-10T01:55:14;10.27;;;9.27;;
5483;SDS011;2764;48.794;8.326;2023-06-10T01:56:15;9.93;;;9.13;;
5483;SDS011;2764;48.794;8.326;2023-06-10T01:57:20;10.40;;;9.30;;
5483;SDS011;2764;48.794;8.326;2023-06-10T01:58:22;9.47;;;8.60;;
5483;SDS011;2764;48.794;8.326;2023-06-10T01:59:24;10.17;;;9.17;;
5483;SDS011;2764;48.794;8.326;2023-06-10T02:00:26;12.00;;;9.87;;
5483;SDS011;2764;48.794;8.326;2023-06-10T02:01:28;9.87;;;8.87;;
5483;SDS011;2764;48.794;8.326;2023-06-10T02:02:30;11.63;;;10.27;;
5483;SDS011;2764;48.794;8.326;2023-06-10T02:03:31;9.93;;;9.13;;
5483;SDS011;2764;48.794;8.326;2023-06-10T02:04:33;10.70;;;9.17;;
5483;SDS011;2764;48.794;8.326;2023-06-10T02:05:35;10.27;;;9.27;;
5483;SDS011;2764;48.794;8.326;2023-06-10T02:06:36;10.40;;;9.50;;
5483;SDS011;2764;48.794;8.326;2023-06-10T02:07:39;10.80;;;9.67;;
5483;SDS011;2764;48.794;8.326;2023-06-10T02:08:41;18.07;;;10.27;;
5483;SDS011;2764;48.794;8.326;2023-06-10T02:09:43;14.60;;;9.97;;
5483;SDS011;2764;48.794;8.326;2023-06-10T02:10:45;11.00;;;9.87;;
5483;SDS011;2764;48.794;8.326;2023-06-10T02:11:47;14.50;;;10.77;;
5483;SDS011;2764;48.794;8.326;2023-06-10T02:12:48;12.00;;;10.03;;
5483;SDS011;2764;48.794;8.326;2023-06-10T02:13:50;12.80;;;9.50;;
5483;SDS011;2764;48.794;8.326;2023-06-10T02:14:51;11.33;;;10.13;;
5483;SDS011;2764;48.794;8.326;2023-06-10T02:15:53;11.13;;;10.03;;
5483;SDS011;2764;48.794;8.326;2023-06-10T02:16:55;11.27;;;10.27;;
5483;SDS011;2764;48.794;8.326;2023-06-10T02:17:59;11.17;;;9.20;;
5483;SDS011;2764;48.794;8.326;2023-06-10T02:19:01;13.60;;;9.40;;
5483;SDS011;2764;48.794;8.326;2023-06-10T02:20:04;10.60;;;9.60;;
5483;SDS011;2764;48.794;8.326;2023-06-10T02:21:09;10.50;;;9.50;;
5483;SDS011;2764;48.794;8.326;2023-06-10T02:22:12;10.23;;;8.93;;
5483;SDS011;2764;48.794;8.326;2023-06-10T02:23:13;10.30;;;9.50;;
5483;SDS011;2764;48.794;8.326;2023-06-10T02:24:15;10.60;;;9.00;;
5483;SDS011;2764;48.794;8.326;2023-06-10T02:25:17;11.17;;;10.07;;
5483;SDS011;2764;48.794;8.326;2023-06-10T02:26:18;10.70;;;9.70;;
5483;SDS011;2764;48.794;8.326;2023-06-10T02:27:20;9.57;;;8.57;;
5483;SDS011;2764;48.794;8.326;2023-06-10T02:28:22;10.00;;;9.10;;
5483;SDS011;2764;48.794;8.326;2023-06-10T02:29:23;11.03;;;10.03;;
5483;SDS011;2764;48.794;8.326;2023-06-10T02:30:25;10.87;;;9.77;;
5483;SDS011;2764;48.794;8.326;2023-06-10T02:31:27;10.00;;;9.10;;
5483;SDS011;2764;48.794;8.326;2023-06-10T02:32:30;10.40;;;9.40;;
5483;SDS011;2764;48.794;8.326;2023-06-10T02:33:31;10.93;;;9.80;;
5483;SDS011;2764;48.794;8.326;2023-06-10T02:34:35;10.87;;;9.87;;
5483;SDS011;2764;48.794;8.326;2023-06-10T02:35:38;11.07;;;9.97;;
5483;SDS011;2764;48.794;8.326;2023-06-10T02:36:39;10.80;;;9.70;;
5483;SDS011;2764;48.794;8.326;2023-06-10T02:37:41;10.37;;;9.47;;
5483;SDS011;2764;48.794;8.326;2023-06-10T02:38:43;10.33;;;9.40;;
5483;SDS011;2764;48.794;8.326;2023-06-10T02:39:44;11.00;;;9.40;;
5483;SDS011;2764;48.794;8.326;2023-06-10T02:40:47;10.53;;;9.53;;
5483;SDS011;2764;48.794;8.326;2023-06-10T02:41:48;14.57;;;9.80;;
5483;SDS011;2764;48.794;8.326;2023-06-10T02:42:50;13.33;;;9.20;;
5483;SDS011;2764;48.794;8.326;2023-06-10T02:43:52;10.60;;;9.57;;
5483;SDS011;2764;48.794;8.326;2023-06-10T02:44:54;10.03;;;9.10;;
5483;SDS011;2764;48.794;8.326;2023-06-10T02:45:56;8.83;;;8.13;;
5483;SDS011;2764;48.794;8.326;2023-06-10T02:46:57;17.33;;;10.03;;
5483;SDS011;2764;48.794;8.326;2023-06-10T02:47:59;10.97;;;9.90;;
5483;SDS011;2764;48.794;8.326;2023-06-10T02:49:01;11.00;;;9.90;;
5483;SDS011;2764;48.794;8.326;2023-06-10T02:50:03;9.70;;;8.77;;
5483;SDS011;2764;48.794;8.326;2023-06-10T02:51:05;10.87;;;9.80;;
5483;SDS011;2764;48.794;8.326;2023-06-10T02:52:06;10.17;;;9.20;;
5483;SDS011;2764;48.794;8.326;2023-06-10T02:53:09;11.10;;;9.97;;
5483;SDS011;2764;48.794;8.326;2023-06-10T02:54:11;11.07;;;9.97;;
5483;SDS011;2764;48.794;8.326;2023-06-10T02:55:12;11.00;;;10.00;;
5483;SDS011;2764;48.794;8.326;2023-06-10T02:56:16;10.57;;;9.60;;
5483;SDS011;2764;48.794;8.326;2023-06-10T02:57:17;10.67;;;9.70;;
5483;SDS011;2764;48.794;8.326;2023-06-10T02:58:19;11.33;;;10.40;;
5483;SDS011;2764;48.794;8.326;2023-06-10T02:59:22;11.07;;;10.17;;
5483;SDS011;2764;48.794;8.326;2023-06-10T03:00:24;11.63;;;9.50;;
5483;SDS011;2764;48.794;8.326;2023-06-10T03:01:26;11.30;;;10.30;;
5483;SDS011;2764;48.794;8.326;2023-06-10T03:02:28;13.10;;;10.27;;
5483;SDS011;2764;48.794;8.326;2023-06-10T03:03:31;11.30;;;10.30;;
5483;SDS011;2764;48.794;8.326;2023-06-10T03:04:34;11.47;;;10.53;;
5483;SDS011;2764;48.794;8.326;2023-06-10T03:05:38;11.47;;;10.43;;
5483;SDS011;2764;48.794;8.326;2023-06-10T03:06:41;11.87;;;9.53;;
5483;SDS011;2764;48.794;8.326;2023-06-10T03:07:43;10.90;;;10.00;;
5483;SDS011;2764;48.794;8.326;2023-06-10T03:08:45;11.97;;;10.77;;
5483;SDS011;2764;48.794;8.326;2023-06-10T03:09:49;11.83;;;10.63;;
5483;SDS011;2764;48.794;8.326;2023-06-10T03:10:51;11.03;;;10.07;;
5483;SDS011;2764;48.794;8.326;2023-06-10T03:11:53;11.37;;;10.43;;
5483;SDS011;2764;48.794;8.326;2023-06-10T03:12:55;10.53;;;9.60;;
5483;SDS011;2764;48.794;8.326;2023-06-10T03:13:57;10.53;;;9.53;;
5483;SDS011;2764;48.794;8.326;2023-06-10T03:14:58;11.23;;;10.33;;
5483;SDS011;2764;48.794;8.326;2023-06-10T03:16:00;10.63;;;9.73;;
5483;SDS011;2764;48.794;8.326;2023-06-10T03:17:02;11.57;;;10.47;;
5483;SDS011;2764;48.794;8.326;2023-06-10T03:18:05;10.10;;;9.20;;
5483;SDS011;2764;48.794;8.326;2023-06-10T03:19:08;10.07;;;9.30;;
5483;SDS011;2764;48.794;8.326;2023-06-10T03:20:10;10.53;;;9.67;;
5483;SDS011;2764;48.794;8.326;2023-06-10T03:21:12;11.30;;;10.40;;
5483;SDS011;2764;48.794;8.326;2023-06-10T03:22:14;11.77;;;10.70;;
5483;SDS011;2764;48.794;8.326;2023-06-10T03:23:16;11.07;;;10.10;;
5483;SDS011;2764;48.794;8.326;2023-06-10T03:24:18;12.40;;;11.30;;
5483;SDS011;2764;48.794;8.326;2023-06-10T03:25:20;11.03;;;10.13;;
5483;SDS011;2764;48.794;8.326;2023-06-10T03:26:22;11.70;;;10.70;;
5483;SDS011;2764;48.794;8.326;2023-06-10T03:27:23;11.47;;;10.50;;
5483;SDS011;2764;48.794;8.326;2023-06-10T03:28:25;11.83;;;10.60;;
5483;SDS011;2764;48.794;8.326;2023-06-10T03:29:27;12.33;;;11.10;;
5483;SDS011;2764;48.794;8.326;2023-06-10T03:30:28;12.40;;;11.20;;
5483;SDS011;2764;48.794;8.326;2023-06-10T03:31:30;11.13;;;10.23;;
5483;SDS011;2764;48.794;8.326;2023-06-10T03:32:32;11.70;;;10.57;;
5483;SDS011;2764;48.794;8.326;2023-06-10T03:33:34;11.10;;;10.00;;
5483;SDS011;2764;48.794;8.326;2023-06-10T03:34:37;12.30;;;11.17;;
5483;SDS011;2764;48.794;8.326;2023-06-10T03:35:39;11.33;;;10.20;;
5483;SDS011;2764;48.794;8.326;2023-06-10T03:36:41;12.50;;;11.27;;
5483;SDS011;2764;48.794;8.326;2023-06-10T03:37:44;12.30;;;11.10;;
5483;SDS011;2764;48.794;8.326;2023-06-10T03:38:46;16.00;;;11.60;;
5483;SDS011;2764;48.794;8.326;2023-06-10T03:39:48;12.87;;;11.57;;
5483;SDS011;2764;48.794;8.326;2023-06-10T03:40:50;12.10;;;11.00;;
5483;SDS011;2764;48.794;8.326;2023-06-10T03:41:52;13.80;;;10.93;;
5483;SDS011;2764;48.794;8.326;2023-06-10T03:42:54;11.10;;;10.00;;
5483;SDS011;2764;48.794;8.326;2023-06-10T03:43:56;11.37;;;10.27;;
5483;SDS011;2764;48.794;8.326;2023-06-10T03:44:57;13.07;;;11.67;;
5483;SDS011;2764;48.794;8.326;2023-06-10T03:45:59;12.00;;;10.90;;
5483;SDS011;2764;48.794;8.326;2023-06-10T03:47:01;15.03;;;11.00;;
5483;SDS011;2764;48.794;8.326;2023-06-10T03:48:03;12.03;;;10.50;;
5483;SDS011;2764;48.794;8.326;2023-06-10T03:49:05;12.17;;;10.90;;
5483;SDS011;2764;48.794;8.326;2023-06-10T03:50:07;13.27;;;11.97;;
5483;SDS011;2764;48.794;8.326;2023-06-10T03:51:12;13.13;;;11.17;;
5483;SDS011;2764;48.794;8.326;2023-06-10T03:52:13;11.60;;;10.57;;
5483;SDS011;2764;48.794;8.326;2023-06-10T03:53:15;10.83;;;9.93;;
5483;SDS011;2764;48.794;8.326;2023-06-10T03:54:17;11.47;;;10.37;;
5483;SDS011;2764;48.794;8.326;2023-06-10T03:55:18;11.23;;;10.33;;
5483;SDS011;2764;48.794;8.326;2023-06-10T03:56:23;14.33;;;10.87;;
5483;SDS011;2764;48.794;8.326;2023-06-10T03:57:24;11.50;;;10.60;;
5483;SDS011;2764;48.794;8.326;2023-06-10T03:58:26;13.60;;;12.27;;
5483;SDS011;2764;48.794;8.326;2023-06-10T03:59:28;11.43;;;10.10;;
5483;SDS011;2764;48.794;8.326;2023-06-10T04:00:30;12.03;;;10.93;;
5483;SDS011;2764;48.794;8.326;2023-06-10T04:01:31;12.60;;;10.87;;
5483;SDS011;2764;48.794;8.326;2023-06-10T04:02:34;17.70;;;10.57;;
5483;SDS011;2764;48.794;8.326;2023-06-10T04:03:36;12.07;;;11.07;;
5483;SDS011;2764;48.794;8.326;2023-06-10T04:04:38;11.40;;;10.30;;
5483;SDS011;2764;48.794;8.326;2023-06-10T04:05:40;11.90;;;10.90;;
5483;SDS011;2764;48.794;8.326;2023-06-10T04:06:41;10.90;;;10.00;;
5483;SDS011;2764;48.794;8.326;2023-06-10T04:07:45;14.20;;;11.30;;
5483;SDS011;2764;48.794;8.326;2023-06-10T04:08:47;12.67;;;10.90;;
5483;SDS011;2764;48.794;8.326;2023-06-10T04:09:49;16.00;;;11.80;;
5483;SDS011;2764;48.794;8.326;2023-06-10T04:10:51;12.57;;;11.33;;
5483;SDS011;2764;48.794;8.326;2023-06-10T04:11:53;11.63;;;10.50;;
5483;SDS011;2764;48.794;8.326;2023-06-10T04:12:55;13.07;;;11.87;;
5483;SDS011;2764;48.794;8.326;2023-06-10T04:13:56;12.07;;;10.83;;
5483;SDS011;2764;48.794;8.326;2023-06-10T04:14:58;12.63;;;10.43;;
5483;SDS011;2764;48.794;8.326;2023-06-10T04:16:01;11.97;;;10.50;;
5483;SDS011;2764;48.794;8.326;2023-06-10T04:17:04;11.30;;;10.30;;
5483;SDS011;2764;48.794;8.326;2023-06-10T04:18:08;15.70;;;10.90;;
5483;SDS011;2764;48.794;8.326;2023-06-10T04:19:10;12.07;;;10.93;;
5483;SDS011;2764;48.794;8.326;2023-06-10T04:20:12;11.63;;;10.73;;
5483;SDS011;2764;48.794;8.326;2023-06-10T04:21:13;10.87;;;9.90;;
5483;SDS011;2764;48.794;8.326;2023-06-10T04:22:15;11.20;;;10.20;;
5483;SDS011;2764;48.794;8.326;2023-06-10T04:23:17;11.07;;;10.17;;
5483;SDS011;2764;48.794;8.326;2023-06-10T04:24:18;11.30;;;10.23;;
5483;SDS011;2764;48.794;8.326;2023-06-10T04:25:20;10.90;;;9.90;;
5483;SDS011;2764;48.794;8.326;2023-06-10T04:26:22;12.13;;;10.93;;
5483;SDS011;2764;48.794;8.326;2023-06-10T04:27:24;11.93;;;10.50;;
5483;SDS011;2764;48.794;8.326;2023-06-10T04:28:25;11.67;;;10.67;;
5483;SDS011;2764;48.794;8.326;2023-06-10T04:29:27;10.77;;;9.73;;
5483;SDS011;2764;48.794;8.326;2023-06-10T04:30:29;11.60;;;10.40;;
5483;SDS011;2764;48.794;8.326;2023-06-10T04:31:32;11.83;;;10.73;;
5483;SDS011;2764;48.794;8.326;2023-06-10T04:32:34;12.30;;;11.00;;
5483;SDS011;2764;48.794;8.326;2023-06-10T04:33:35;13.00;;;10.77;;
5483;SDS011;2764;48.794;8.326;2023-06-10T04:34:37;11.33;;;10.33;;
5483;SDS011;2764;48.794;8.326;2023-06-10T04:35:42;10.97;;;9.87;;
5483;SDS011;2764;48.794;8.326;2023-06-10T04:36:43;13.77;;;10.97;;
5483;SDS011;2764;48.794;8.326;2023-06-10T04:37:45;11.60;;;10.70;;
5483;SDS011;2764;48.794;8.326;2023-06-10T04:38:47;12.20;;;11.20;;
5483;SDS011;2764;48.794;8.326;2023-06-10T04:39:49;13.43;;;11.50;;
5483;SDS011;2764;48.794;8.326;2023-06-10T04:40:51;13.20;;;11.67;;
5483;SDS011;2764;48.794;8.326;2023-06-10T04:41:53;16.00;;;10.50;;
5483;SDS011;2764;48.794;8.326;2023-06-10T04:42:55;11.93;;;10.83;;
5483;SDS011;2764;48.794;8.326;2023-06-10T04:43:56;13.47;;;10.60;;
5483;SDS011;2764;48.794;8.326;2023-06-10T04:44:59;12.20;;;11.07;;
5483;SDS011;2764;48.794;8.326;2023-06-10T04:46:00;12.17;;;11.00;;
5483;SDS011;2764;48.794;8.326;2023-06-10T04:47:04;12.57;;;11.10;;
5483;SDS011;2764;48.794;8.326;2023-06-10T04:48:06;16.13;;;11.07;;
5483;SDS011;2764;48.794;8.326;2023-06-10T04:49:09;11.97;;;10.80;;
5483;SDS011;2764;48.794;8.326;2023-06-10T04:50:10;13.00;;;11.63;;
5483;SDS011;2764;48.794;8.326;2023-06-10T04:51:12;12.87;;;11.67;;
5483;SDS011;2764;48.794;8.326;2023-06-10T04:52:15;11.73;;;10.70;;
5483;SDS011;2764;48.794;8.326;2023-06-10T04:53:19;11.80;;;10.33;;
5483;SDS011;2764;48.794;8.326;2023-06-10T04:54:22;15.60;;;10.57;;
5483;SDS011;2764;48.794;8.326;2023-06-10T04:55:24;10.70;;;9.70;;
5483;SDS011;2764;48.794;8.326;2023-06-10T04:56:26;12.60;;;10.67;;
5483;SDS011;2764;48.794;8.326;2023-06-10T04:57:28;9.83;;;8.87;;
5483;SDS011;2764;48.794;8.326;2023-06-10T04:58:30;12.13;;;10.90;;
5483;SDS011;2764;48.794;8.326;2023-06-10T04:59:31;10.47;;;9.47;;
5483;SDS011;2764;48.794;8.326;2023-06-10T05:00:33;10.70;;;9.70;;
5483;SDS011;2764;48.794;8.326;2023-06-10T05:01:35;11.27;;;10.07;;
5483;SDS011;2764;48.794;8.326;2023-06-10T05:02:37;10.20;;;9.30;;
5483;SDS011;2764;48.794;8.326;2023-06-10T05:03:38;10.50;;;9.40;;
5483;SDS011;2764;48.794;8.326;2023-06-10T05:04:40;13.93;;;10.43;;
5483;SDS011;2764;48.794;8.326;2023-06-10T05:05:42;11.43;;;10.00;;
5483;SDS011;2764;48.794;8.326;2023-06-10T05:06:43;10.37;;;9.33;;
5483;SDS011;2764;48.794;8.326;2023-06-10T05:07:45;14.57;;;10.13;;
5483;SDS011;2764;48.794;8.326;2023-06-10T05:08:47;15.33;;;10.60;;
5483;SDS011;2764;48.794;8.326;2023-06-10T05:09:49;16.00;;;9.90;;
5483;SDS011;2764;48.794;8.326;2023-06-10T05:10:50;14.10;;;10.67;;
5483;SDS011;2764;48.794;8.326;2023-06-10T05:11:52;16.43;;;9.90;;
5483;SDS011;2764;48.794;8.326;2023-06-10T05:12:55;11.27;;;10.10;;
5483;SDS011;2764;48.794;8.326;2023-06-10T05:13:56;13.10;;;9.60;;
5483;SDS011;2764;48.794;8.326;2023-06-10T05:14:58;9.90;;;8.90;;
5483;SDS011;2764;48.794;8.326;2023-06-10T05:15:59;11.10;;;8.90;;
5483;SDS011;2764;48.794;8.326;2023-06-10T05:17:01;9.60;;;8.80;;
5483;SDS011;2764;48.794;8.326;2023-06-10T05:18:03;15.17;;;8.93;;
5483;SDS011;2764;48.794;8.326;2023-06-10T05:19:05;9.53;;;8.63;;
5483;SDS011;2764;48.794;8.326;2023-06-10T05:20:09;9.67;;;8.77;;
5483;SDS011;2764;48.794;8.326;2023-06-10T05:21:11;12.40;;;9.37;;
5483;SDS011;2764;48.794;8.326;2023-06-10T05:22:13;10.13;;;9.23;;
5483;SDS011;2764;48.794;8.326;2023-06-10T05:23:15;10.33;;;9.30;;
5483;SDS011;2764;48.794;8.326;2023-06-10T05:24:17;15.17;;;9.70;;
5483;SDS011;2764;48.794;8.326;2023-06-10T05:25:19;15.67;;;9.50;;
5483;SDS011;2764;48.794;8.326;2023-06-10T05:26:20;14.07;;;9.50;;
5483;SDS011;2764;48.794;8.326;2023-06-10T05:27:22;10.00;;;9.00;;
5483;SDS011;2764;48.794;8.326;2023-06-10T05:28:25;10.30;;;9.50;;
5483;SDS011;2764;48.794;8.326;2023-06-10T05:29:27;10.07;;;9.23;;
5483;SDS011;2764;48.794;8.326;2023-06-10T05:30:28;9.23;;;8.53;;
5483;SDS011;2764;48.794;8.326;2023-06-10T05:31:30;9.73;;;8.63;;
5483;SDS011;2764;48.794;8.326;2023-06-10T05:32:32;11.10;;;10.00;;
5483;SDS011;2764;48.794;8.326;2023-06-10T05:33:34;13.20;;;10.97;;
5483;SDS011;2764;48.794;8.326;2023-06-10T05:34:36;12.00;;;10.80;;
5483;SDS011;2764;48.794;8.326;2023-06-10T05:35:37;15.03;;;12.27;;
5483;SDS011;2764;48.794;8.326;2023-06-10T05:36:39;13.17;;;11.97;;
5483;SDS011;2764;48.794;8.326;2023-06-10T05:37:40;14.10;;;12.47;;
5483;SDS011;2764;48.794;8.326;2023-06-10T05:38:42;19.40;;;12.47;;
5483;SDS011;2764;48.794;8.326;2023-06-10T05:39:44;12.93;;;11.73;;
5483;SDS011;2764;48.794;8.326;2023-06-10T05:40:46;12.30;;;11.20;;
5483;SDS011;2764;48.794;8.326;2023-06-10T05:41:47;15.63;;;14.00;;
5483;SDS011;2764;48.794;8.326;2023-06-10T05:42:49;14.47;;;13.07;;
5483;SDS011;2764;48.794;8.326;2023-06-10T05:43:51;14.50;;;13.07;;
5483;SDS011;2764;48.794;8.326;2023-06-10T05:44:53;13.70;;;11.37;;
5483;SDS011;2764;48.794;8.326;2023-06-10T05:45:54;14.63;;;12.47;;
5483;SDS011;2764;48.794;8.326;2023-06-10T05:46:56;12.93;;;11.73;;
5483;SDS011;2764;48.794;8.326;2023-06-10T05:47:57;13.17;;;11.90;;
5483;SDS011;2764;48.794;8.326;2023-06-10T05:48:59;13.17;;;11.83;;
5483;SDS011;2764;48.794;8.326;2023-06-10T05:50:01;14.40;;;11.43;;
5483;SDS011;2764;48.794;8.326;2023-06-10T05:51:03;12.97;;;11.60;;
5483;SDS011;2764;48.794;8.326;2023-06-10T05:52:05;13.60;;;11.50;;
5483;SDS011;2764;48.794;8.326;2023-06-10T05:53:07;12.13;;;11.03;;
5483;SDS011;2764;48.794;8.326;2023-06-10T05:54:16;11.40;;;10.27;;
5483;SDS011;2764;48.794;8.326;2023-06-10T05:55:17;12.90;;;10.10;;
5483;SDS011;2764;48.794;8.326;2023-06-10T05:56:19;11.07;;;9.90;;
5483;SDS011;2764;48.794;8.326;2023-06-10T05:57:21;11.93;;;10.83;;
5483;SDS011;2764;48.794;8.326;2023-06-10T05:58:23;11.37;;;10.27;;
5483;SDS011;2764;48.794;8.326;2023-06-10T05:59:25;12.40;;;11.10;;
5483;SDS011;2764;48.794;8.326;2023-06-10T06:00:27;10.50;;;9.70;;
5483;SDS011;2764;48.794;8.326;2023-06-10T06:01:28;12.00;;;10.97;;
5483;SDS011;2764;48.794;8.326;2023-06-10T06:02:30;11.00;;;10.00;;
5483;SDS011;2764;48.794;8.326;2023-06-10T06:03:32;11.30;;;9.67;;
5483;SDS011;2764;48.794;8.326;2023-06-10T06:04:33;10.77;;;9.77;;
5483;SDS011;2764;48.794;8.326;2023-06-10T06:05:38;9.90;;;9.00;;
5483;SDS011;2764;48.794;8.326;2023-06-10T06:06:40;10.07;;;9.27;;
5483;SDS011;2764;48.794;8.326;2023-06-10T06:07:42;10.07;;;9.03;;
5483;SDS011;2764;48.794;8.326;2023-06-10T06:08:43;11.40;;;9.57;;
5483;SDS011;2764;48.794;8.326;2023-06-10T06:09:45;11.70;;;8.43;;
5483;SDS011;2764;48.794;8.326;2023-06-10T06:10:47;12.20;;;9.10;;
5483;SDS011;2764;48.794;8.326;2023-06-10T06:11:51;9.43;;;8.47;;
5483;SDS011;2764;48.794;8.326;2023-06-10T06:12:53;9.00;;;8.30;;
5483;SDS011;2764;48.794;8.326;2023-06-10T06:13:55;9.30;;;8.50;;
5483;SDS011;2764;48.794;8.326;2023-06-10T06:14:57;9.10;;;8.30;;
5483;SDS011;2764;48.794;8.326;2023-06-10T06:15:59;8.27;;;7.50;;
5483;SDS011;2764;48.794;8.326;2023-06-10T06:17:00;14.93;;;8.80;;
5483;SDS011;2764;48.794;8.326;2023-06-10T06:18:02;8.23;;;7.50;;
5483;SDS011;2764;48.794;8.326;2023-06-10T06:19:04;18.27;;;8.57;;
5483;SDS011;2764;48.794;8.326;2023-06-10T06:20:06;7.97;;;7.27;;
5483;SDS011;2764;48.794;8.326;2023-06-10T06:21:08;10.00;;;9.07;;
5483;SDS011;2764;48.794;8.326;2023-06-10T06:22:09;8.70;;;7.90;;
5483;SDS011;2764;48.794;8.326;2023-06-10T06:23:11;9.10;;;8.20;;
5483;SDS011;2764;48.794;8.326;2023-06-10T06:24:13;11.10;;;7.77;;
5483;SDS011;2764;48.794;8.326;2023-06-10T06:25:15;7.90;;;7.00;;
5483;SDS011;2764;48.794;8.326;2023-06-10T06:26:17;8.70;;;7.80;;